Boras — TCGU — position and weather

sailwx.info

Track history (hours):
 
Tides and Currents Weather Stations Pressure Air Temp Water Temp Dewpoint Dewpoint Depression Visibility Wind Speed Wind Dir Waves Ship Positions

Boras

Last reported at 2015-Jul-30 15:33 UTC. Time now 2015-Jul-31 13:24 UTC.
Position N 35°07' E 034°02'.

Length 103 m; draft 5 m.

Type: Cargo ship. MMSI: 271000352.

Date/timePositionNaut miles runAvg speedWind from/ knotsBaromVisibWave heightAir tempDewpointWater temp
2015-Jul-30 15:33N 35°07' E 034°02'10 7.6
2015-Jul-30 14:13N 35°00' E 034°11'5 8.4
2015-Jul-30 13:33N 34°55' E 034°14'9 8.7
2015-Jul-30 12:33N 34°47' E 034°18'9 8.8
2015-Jul-30 11:34N 34°39' E 034°22'9 8.7
2015-Jul-30 10:33N 34°31' E 034°27'9 7.6
2015-Jul-30 09:20N 34°22' E 034°25'15 8.4
2015-Jul-30 07:33N 34°08' E 034°19'18 8.9
2015-Jul-30 05:33N 33°51' E 034°13'1010.1
2015-Jul-30 04:33N 33°41' E 034°12'10 9.9
2015-Jul-30 03:32N 33°31' E 034°12'1010.1
2015-Jul-30 02:34N 33°21' E 034°13'10 9.9
2015-Jul-30 01:34N 33°11' E 034°14'10 9.9
2015-Jul-30 00:32N 33°01' E 034°14'9 9.8
2015-Jul-29 23:33N 32°51' E 034°14'10 9.3
2015-Jul-29 22:28N 32°41' E 034°15'9 9.2
2015-Jul-29 21:28N 32°32' E 034°16'10 9.1
2015-Jul-29 20:25N 32°23' E 034°17'8 8.7
2015-Jul-29 19:33N 32°15' E 034°18'9 8.5
2015-Jul-29 18:32N 32°07' E 034°20'8 8.6
2015-Jul-29 17:33N 31°58' E 034°21'  
2015-Jul-24 23:08N 31°50' E 034°36'0 0.0
2015-Jul-24 05:05N 31°50' E 034°36'13 7.3
2015-Jul-24 03:16N 31°55' E 034°22'13 7.7
2015-Jul-24 01:31N 32°01' E 034°08'7 7.4
2015-Jul-24 00:33N 32°04' E 034°00'7 7.1
2015-Jul-23 23:33N 32°07' E 033°53'17 7.1
2015-Jul-23 21:10N 32°18' E 033°38'13 7.8
2015-Jul-23 19:33N 32°28' E 033°28'8 7.9
2015-Jul-23 18:31N 32°34' E 033°21'8 8.0
2015-Jul-23 17:30N 32°40' E 033°15'32 8.2
2015-Jul-23 13:33N 33°04' E 032°50'9 8.7
2015-Jul-23 12:33N 33°10' E 032°43'9 8.5
2015-Jul-23 11:32N 33°17' E 032°36'8 8.2
2015-Jul-23 10:33N 33°23' E 032°29'8 8.1
2015-Jul-23 09:33N 33°28' E 032°22'8 7.7
2015-Jul-23 08:32N 33°33' E 032°14'15 7.3
2015-Jul-23 06:33N 33°43' E 032°01'16 7.6
2015-Jul-23 04:24N 33°53' E 031°47'22 7.4
2015-Jul-23 01:31N 34°08' E 031°28'7 7.4
2015-Jul-23 00:33N 34°13' E 031°22'8 7.4
2015-Jul-22 23:26N 34°19' E 031°14'7 7.4
2015-Jul-22 22:28N 34°24' E 031°08'9 7.7
2015-Jul-22 21:19N 34°30' E 031°00'6 7.9
2015-Jul-22 20:33N 34°34' E 030°55'183 7.6
2015-Jul-21 20:33N 36°30' E 028°01'8 7.6
2015-Jul-21 19:33N 36°30' E 027°52'  
Track history (hours):
 
Tides and Currents Weather Stations Pressure Air Temp Water Temp Dewpoint Dewpoint Depression Visibility Wind Speed Wind Dir Waves Ship Positions

Boras

Last reported at 2015-Jul-30 15:33 UTC. Time now 2015-Jul-31 13:24 UTC.
Position N 35°07' E 034°02'.

Length 103 m; draft 5 m.

Type: Cargo ship. MMSI: 271000352.

Date/timePositionNaut miles runAvg speedWind from/ knotsBaromVisibWave heightAir tempDewpointWater temp
2015-Jul-30 15:33N 35°07' E 034°02'10 7.6
2015-Jul-30 14:13N 35°00' E 034°11'5 8.4
2015-Jul-30 13:33N 34°55' E 034°14'9 8.7
2015-Jul-30 12:33N 34°47' E 034°18'9 8.8
2015-Jul-30 11:34N 34°39' E 034°22'9 8.7
2015-Jul-30 10:33N 34°31' E 034°27'9 7.6
2015-Jul-30 09:20N 34°22' E 034°25'15 8.4
2015-Jul-30 07:33N 34°08' E 034°19'18 8.9
2015-Jul-30 05:33N 33°51' E 034°13'1010.1
2015-Jul-30 04:33N 33°41' E 034°12'10 9.9
2015-Jul-30 03:32N 33°31' E 034°12'1010.1
2015-Jul-30 02:34N 33°21' E 034°13'10 9.9
2015-Jul-30 01:34N 33°11' E 034°14'10 9.9
2015-Jul-30 00:32N 33°01' E 034°14'9 9.8
2015-Jul-29 23:33N 32°51' E 034°14'10 9.3
2015-Jul-29 22:28N 32°41' E 034°15'9 9.2
2015-Jul-29 21:28N 32°32' E 034°16'10 9.1
2015-Jul-29 20:25N 32°23' E 034°17'8 8.7
2015-Jul-29 19:33N 32°15' E 034°18'9 8.5
2015-Jul-29 18:32N 32°07' E 034°20'8 8.6
2015-Jul-29 17:33N 31°58' E 034°21'  
2015-Jul-24 23:08N 31°50' E 034°36'0 0.0
2015-Jul-24 05:05N 31°50' E 034°36'13 7.3
2015-Jul-24 03:16N 31°55' E 034°22'13 7.7
2015-Jul-24 01:31N 32°01' E 034°08'7 7.4
2015-Jul-24 00:33N 32°04' E 034°00'7 7.1
2015-Jul-23 23:33N 32°07' E 033°53'17 7.1
2015-Jul-23 21:10N 32°18' E 033°38'13 7.8
2015-Jul-23 19:33N 32°28' E 033°28'8 7.9
2015-Jul-23 18:31N 32°34' E 033°21'8 8.0
2015-Jul-23 17:30N 32°40' E 033°15'32 8.2
2015-Jul-23 13:33N 33°04' E 032°50'9 8.7
2015-Jul-23 12:33N 33°10' E 032°43'9 8.5
2015-Jul-23 11:32N 33°17' E 032°36'8 8.2
2015-Jul-23 10:33N 33°23' E 032°29'8 8.1
2015-Jul-23 09:33N 33°28' E 032°22'8 7.7
2015-Jul-23 08:32N 33°33' E 032°14'15 7.3
2015-Jul-23 06:33N 33°43' E 032°01'16 7.6
2015-Jul-23 04:24N 33°53' E 031°47'22 7.4
2015-Jul-23 01:31N 34°08' E 031°28'7 7.4
2015-Jul-23 00:33N 34°13' E 031°22'8 7.4
2015-Jul-22 23:26N 34°19' E 031°14'7 7.4
2015-Jul-22 22:28N 34°24' E 031°08'9 7.7
2015-Jul-22 21:19N 34°30' E 031°00'6 7.9
2015-Jul-22 20:33N 34°34' E 030°55'183 7.6
2015-Jul-21 20:33N 36°30' E 028°01'8 7.6
2015-Jul-21 19:33N 36°30' E 027°52'  

Dump ship's entire track history